createdAt,value
2022-11-09T00:01:49.494Z,100489.25
2022-11-09T00:06:55.169Z,100489.00
2022-11-09T00:11:56.895Z,100478.69
2022-11-09T00:16:59.801Z,100479.47
2022-11-09T00:22:09.287Z,100474.75
2022-11-09T00:27:17.468Z,100473.47
2022-11-09T00:32:25.301Z,100471.38
2022-11-09T00:37:32.718Z,100470.13
2022-11-09T00:42:36.807Z,100476.47
2022-11-09T00:47:38.503Z,100477.13
2022-11-09T00:52:42.613Z,100463.47
2022-11-09T00:57:50.986Z,100455.00
2022-11-09T01:02:53.786Z,100453.94
2022-11-09T01:07:55.416Z,100447.75
2022-11-09T01:12:59.420Z,100454.75
2022-11-09T01:18:01.094Z,100455.00
2022-11-09T01:23:05.987Z,100450.69
2022-11-09T01:28:09.156Z,100445.75
2022-11-09T01:33:12.035Z,100459.75
2022-11-09T01:38:19.527Z,100459.53
2022-11-09T01:43:26.974Z,100469.25
2022-11-09T01:48:50.193Z,100455.06
2022-11-09T01:54:00.869Z,100455.31
2022-11-09T01:59:13.960Z,100452.91
2022-11-09T02:04:21.662Z,100454.75
2022-11-09T02:09:47.622Z,100448.41
2022-11-09T02:14:54.105Z,100459.94
2022-11-09T02:19:58.716Z,100458.94
2022-11-09T02:25:07.777Z,100457.06
2022-11-09T02:30:14.626Z,100448.13
2022-11-09T02:35:17.671Z,100448.09
2022-11-09T02:40:21.047Z,100446.88
2022-11-09T02:45:23.331Z,100441.72
2022-11-09T02:50:27.469Z,100440.88
2022-11-09T02:55:29.263Z,100433.81
2022-11-09T03:00:34.124Z,100443.69
2022-11-09T03:05:38.647Z,100447.44
2022-11-09T03:10:42.912Z,100450.31
2022-11-09T03:15:45.236Z,100446.38
2022-11-09T03:20:46.960Z,100442.63
2022-11-09T03:25:51.507Z,100445.91
2022-11-09T03:30:55.490Z,100435.34
2022-11-09T03:35:59.466Z,100448.31
2022-11-09T03:41:03.049Z,100435.53
2022-11-09T03:46:10.067Z,100447.06
2022-11-09T03:51:15.646Z,100451.97
2022-11-09T03:56:20.473Z,100451.16
2022-11-09T04:01:24.606Z,100459.13
2022-11-09T04:06:28.815Z,100450.97
2022-11-09T04:11:30.554Z,100464.53
2022-11-09T04:16:33.339Z,100465.63
2022-11-09T04:21:36.152Z,100462.34
2022-11-09T04:26:37.826Z,100462.38
2022-11-09T04:31:44.213Z,100468.75
2022-11-09T04:36:45.965Z,100471.19
2022-11-09T04:41:49.934Z,100474.06
2022-11-09T04:46:54.072Z,100486.63
2022-11-09T04:51:58.200Z,100482.09
2022-11-09T04:57:04.513Z,100486.44
2022-11-09T05:02:06.162Z,100479.09
2022-11-09T05:07:12.677Z,100479.72
2022-11-09T05:12:18.882Z,100474.00
2022-11-09T05:17:25.389Z,100476.00
2022-11-09T05:22:46.813Z,100483.81
2022-11-09T05:27:48.608Z,100486.19
2022-11-09T05:32:52.558Z,100491.53
2022-11-09T05:37:59.155Z,100494.44
2022-11-09T05:43:06.216Z,100497.94
2022-11-09T05:48:08.201Z,100498.25
2022-11-09T05:53:13.280Z,100500.00
2022-11-09T05:58:16.048Z,100501.78
2022-11-09T06:03:20.327Z,100510.38
2022-11-09T06:08:23.254Z,100518.41
2022-11-09T06:13:28.115Z,100511.00
2022-11-09T06:18:35.793Z,100510.00
2022-11-09T06:23:41.737Z,100514.91
2022-11-09T06:28:43.460Z,100515.13
2022-11-09T06:33:47.747Z,100527.63
2022-11-09T06:38:50.881Z,100543.47
2022-11-09T06:43:58.279Z,100541.78
2022-11-09T06:49:04.890Z,100535.19
2022-11-09T06:54:10.882Z,100563.81
2022-11-09T06:59:13.633Z,100561.13
2022-11-09T07:04:18.659Z,100563.44
2022-11-09T07:09:22.416Z,100569.16
2022-11-09T07:14:26.496Z,100573.94
2022-11-09T07:19:35.460Z,100580.56
2022-11-09T07:24:37.069Z,100584.69
2022-11-09T07:29:38.739Z,100588.06
2022-11-09T07:34:44.105Z,100583.59
2022-11-09T07:39:47.243Z,100593.75
2022-11-09T07:44:52.337Z,100597.69
2022-11-09T07:49:54.057Z,100598.31
2022-11-09T07:54:57.966Z,100597.53
2022-11-09T07:59:59.610Z,100606.19
2022-11-09T08:05:01.275Z,100608.31
2022-11-09T08:10:04.693Z,100603.03
2022-11-09T08:15:07.211Z,100603.06
2022-11-09T08:20:13.794Z,100615.06
2022-11-09T08:25:16.984Z,100607.69
2022-11-09T08:30:23.514Z,100618.00
2022-11-09T08:35:25.481Z,100625.09
2022-11-09T08:40:27.205Z,100616.88
2022-11-09T08:45:35.984Z,100621.88
2022-11-09T08:50:37.946Z,100622.09
2022-11-09T08:55:39.645Z,100616.53
2022-11-09T09:00:43.616Z,100623.19
2022-11-09T09:05:47.861Z,100619.91
2022-11-09T09:10:50.309Z,100623.22
2022-11-09T09:15:56.770Z,100630.69
2022-11-09T09:20:58.604Z,100638.16
2022-11-09T09:26:00.351Z,100648.09
2022-11-09T09:31:04.927Z,100648.53
2022-11-09T09:36:14.926Z,100642.34
2022-11-09T09:41:29.599Z,100644.41
2022-11-09T09:46:44.368Z,100655.00
2022-11-09T09:51:55.348Z,100670.09
2022-11-09T09:57:00.855Z,100665.97
2022-11-09T10:02:03.416Z,100673.63
2022-11-09T10:07:12.504Z,100658.16
2022-11-09T10:12:35.671Z,100675.97
2022-11-09T10:17:58.982Z,100671.19
2022-11-09T10:23:29.051Z,100663.13
2022-11-09T10:29:14.461Z,100669.50
2022-11-09T10:34:23.137Z,100665.53
2022-11-09T10:39:26.541Z,100669.88
2022-11-09T10:44:48.809Z,100666.50
2022-11-09T10:50:38.324Z,100671.09
2022-11-09T10:55:59.410Z,100660.78
2022-11-09T11:01:23.379Z,100661.81
2022-11-09T11:06:49.749Z,100665.09
2022-11-09T11:12:16.528Z,100661.50
2022-11-09T11:17:37.150Z,100669.59
2022-11-09T11:23:15.738Z,100677.47
2022-11-09T11:28:50.041Z,100669.69
2022-11-09T11:34:38.524Z,100660.22
2022-11-09T11:40:03.742Z,100671.88
2022-11-09T11:45:42.611Z,100675.69
2022-11-09T11:51:17.292Z,100674.66
2022-11-09T11:56:47.169Z,100672.31
2022-11-09T12:02:28.287Z,100675.84
2022-11-09T12:08:15.258Z,100671.56
2022-11-09T12:13:58.604Z,100664.34
2022-11-09T12:19:35.792Z,100657.38
2022-11-09T12:25:11.379Z,100650.94
2022-11-09T12:30:44.064Z,100659.56
2022-11-09T12:36:14.094Z,100669.97
2022-11-09T12:41:36.198Z,100674.50
2022-11-09T12:47:07.153Z,100662.63
2022-11-09T12:52:29.105Z,100676.13
2022-11-09T12:57:49.609Z,100672.59
2022-11-09T13:03:23.242Z,100668.97
2022-11-09T13:09:10.731Z,100668.09
2022-11-09T13:14:35.468Z,100674.25
2022-11-09T13:19:59.948Z,100675.63
2022-11-09T13:25:50.918Z,100664.13
2022-11-09T13:31:12.294Z,100678.34
2022-11-09T13:36:35.950Z,100685.22
2022-11-09T13:41:56.284Z,100681.91
2022-11-09T13:47:32.337Z,100674.03
2022-11-09T13:52:55.732Z,100679.25
2022-11-09T13:58:28.783Z,100676.75
2022-11-09T14:03:53.633Z,100676.34
2022-11-09T14:09:19.554Z,100674.94
2022-11-09T14:14:45.349Z,100680.78
2022-11-09T14:20:18.464Z,100678.72
2022-11-09T14:25:38.503Z,100687.06
2022-11-09T14:31:00.028Z,100670.94
2022-11-09T14:36:22.684Z,100679.84
2022-11-09T14:41:44.175Z,100681.47
2022-11-09T14:47:05.279Z,100680.66
2022-11-09T14:52:28.698Z,100680.47
2022-11-09T14:57:50.676Z,100677.56
2022-11-09T15:03:28.591Z,100688.53
2022-11-09T15:08:55.854Z,100710.47
2022-11-09T15:14:26.565Z,100701.16
2022-11-09T15:19:55.991Z,100705.72
2022-11-09T15:25:44.652Z,100711.31
2022-11-09T15:31:12.689Z,100716.28
2022-11-09T15:36:35.767Z,100735.31
2022-11-09T15:41:57.754Z,100727.22
2022-11-09T15:47:38.164Z,100743.75
2022-11-09T15:52:58.615Z,100745.00
2022-11-09T15:58:22.324Z,100735.84
2022-11-09T16:03:42.822Z,100751.50
2022-11-09T16:09:05.431Z,100754.56
2022-11-09T16:14:25.845Z,100755.75
2022-11-09T16:19:46.247Z,100760.88
2022-11-09T16:25:06.954Z,100763.22
2022-11-09T16:30:27.203Z,100775.88
2022-11-09T16:35:50.429Z,100791.88
2022-11-09T16:41:13.588Z,100791.69
2022-11-09T16:46:35.653Z,100805.38
2022-11-09T16:52:00.794Z,100812.59
2022-11-09T16:57:25.808Z,100814.19
2022-11-09T17:02:46.208Z,100837.19
2022-11-09T17:08:09.696Z,100837.44
2022-11-09T17:13:30.291Z,100846.06
2022-11-09T17:18:55.036Z,100860.75
2022-11-09T17:24:15.280Z,100860.31
2022-11-09T17:29:37.763Z,100863.56
2022-11-09T17:34:58.006Z,100876.09
2022-11-09T17:40:21.399Z,100878.78
2022-11-09T17:45:42.783Z,100881.59
2022-11-09T17:51:08.699Z,100881.91
2022-11-09T17:56:30.936Z,100892.78
2022-11-09T18:01:51.142Z,100903.50
2022-11-09T18:07:11.345Z,100915.53
2022-11-09T18:12:33.604Z,100921.84
2022-11-09T18:17:57.481Z,100919.88
2022-11-09T18:23:56.386Z,100941.06
2022-11-09T18:29:17.563Z,100944.00
2022-11-09T18:34:37.752Z,100946.31
2022-11-09T18:40:00.852Z,100943.53
2022-11-09T18:45:21.923Z,100957.75
2022-11-09T18:50:42.408Z,100962.94
2022-11-09T18:56:07.228Z,100978.56
2022-11-09T19:01:32.320Z,100993.97
2022-11-09T19:06:54.857Z,100991.63
2022-11-09T19:12:17.931Z,101000.25
2022-11-09T19:17:40.784Z,101009.22
2022-11-09T19:23:03.486Z,101009.03
2022-11-09T19:28:24.027Z,101039.88
2022-11-09T19:33:51.747Z,101042.09
2022-11-09T19:39:15.351Z,101050.31
2022-11-09T19:44:35.798Z,101048.63
2022-11-09T19:49:56.303Z,101046.16
2022-11-09T19:55:19.162Z,101059.91
2022-11-09T20:00:39.502Z,101079.25
2022-11-09T20:06:01.651Z,101077.66
2022-11-09T20:11:42.561Z,101093.59
2022-11-09T20:17:03.721Z,101110.75
2022-11-09T20:22:24.326Z,101113.84
2022-11-09T20:27:44.815Z,101118.72
2022-11-09T20:33:05.322Z,101131.97
2022-11-09T20:38:25.541Z,101128.31
2022-11-09T20:43:45.758Z,101146.53
2022-11-09T20:49:09.246Z,101157.09
2022-11-09T20:54:30.435Z,101168.81
2022-11-09T20:59:50.972Z,101185.41
2022-11-09T21:05:12.476Z,101186.09
2022-11-09T21:10:33.994Z,101188.16
2022-11-09T21:16:00.694Z,101204.88
2022-11-09T21:21:25.756Z,101208.88
2022-11-09T21:27:04.523Z,101213.03
2022-11-09T21:32:24.725Z,101217.38
2022-11-09T21:37:45.270Z,101231.25
2022-11-09T21:43:07.964Z,101231.28
2022-11-09T21:48:28.207Z,101239.13
2022-11-09T21:53:50.973Z,101245.81
2022-11-09T21:59:13.574Z,101243.66
2022-11-09T22:04:35.437Z,101244.63
2022-11-09T22:10:10.019Z,101251.00
2022-11-09T22:15:50.044Z,101258.31
2022-11-09T22:21:10.084Z,101273.53
2022-11-09T22:26:32.038Z,101291.72
2022-11-09T22:31:54.611Z,101293.38
2022-11-09T22:37:14.874Z,101289.19
2022-11-09T22:42:35.386Z,101300.56
2022-11-09T22:47:55.857Z,101307.41
2022-11-09T22:53:16.449Z,101316.75
2022-11-09T22:58:37.047Z,101315.06
2022-11-09T23:03:58.612Z,101330.44
2022-11-09T23:09:21.374Z,101331.56
2022-11-09T23:15:02.828Z,101321.38
2022-11-09T23:20:23.295Z,101335.38
2022-11-09T23:25:56.480Z,101337.84
2022-11-09T23:31:19.546Z,101349.84
2022-11-09T23:36:44.766Z,101355.97
2022-11-09T23:42:04.912Z,101364.09
2022-11-09T23:47:27.310Z,101369.75
2022-11-09T23:52:47.756Z,101376.25
2022-11-09T23:58:08.417Z,101383.28
